CZFN/ZFN METAR and TAF weather

Enter ICAO airport designator
Station Type Date Time Source
CZFN METAR 2018/07/19 23:00 UTC NOAA

CZFN 192300Z 27004KT 170V280 20SM FEW090TCU SCT120 23/08 A3000 RMK TCU2AC2 24.3 / 9.0 / TR / LAST STFD OBS/NEXT 201500Z SLP164 DENSITY ALT 1300FT


Station Type Date Time Source
CZFN Decoded METAR 2018/07/19 23:00 UTC NOAA

Fort Norman Airport, Canada (CZFN) 64-55N 125-34W
Jul 19, 2018 - 07:00 PM EDT / 2018.07.19 2300 UTC
Wind: from the W (270 degrees) at 5 MPH (4 KT) (direction variable):0
Visibility: 20 mile(s):0
Sky conditions: partly cloudy
Weather: Towering cumulus clouds observed
Temperature: 73 F (23 C)
Dew Point: 46 F (8 C)
Relative Humidity: 38%
Pressure (altimeter): 30 in. Hg (1015 hPa)
ob: CZFN 192300Z 27004KT 170V280 20SM FEW090TCU SCT120 23/08 A3000 RMK TCU2AC2 24.3 / 9.0 / TR / LAST STFD OBS/NEXT 201500Z SLP164 DENSITY ALT 1300FT
cycle: 23

Station Type Date Time Source
CZFN TAF UTC NOAA

Error!


Example: see airport list